KTYS

Mc Ghee Tyson Airport

Knoxville, Tennessee, USA
KTYS 251720Z 2518/2618 31008KT P6SM VCSH SCT025 BKN035 BKN060 FM260200 VRB03KT P6SM BKN060 FM260900 00000KT 5SM BR OVC025 FM261200 06004KT P6SM OVC045 FM261500 VRB03KT 6SM -SHRA BR OVC025
Issued Valid From Valid To
Apr-25 @ 17:20 UTC
(48 minutes ago)
Apr-25 @ 18:00 UTC
(8 minutes ago)
Apr-26 @ 18:00 UTC
(in 24 hours)
Apr-25 @ 18:00 to Apr-26 @ 02:00
KTYS 251720Z 2518/2618 31008KT P6SM VCSH SCT025 BKN035 BKN060
Wind Visibility Clouds
310° at 8 knots Greater than 6 miles
  • Scattered at 2,500' AGL
  • Broken at 3,500' AGL
  • Broken at 6,000' AGL
From Apr-26 @ 02:00 to Apr-26 @ 09:00
FM260200 VRB03KT P6SM BKN060
Wind Visibility Clouds
Variable at 3 knots Greater than 6 miles
  • Broken at 6,000' AGL
From Apr-26 @ 09:00 to Apr-26 @ 12:00
FM260900 00000KT 5SM BR OVC025
Visibility Clouds Conditions
5 miles
  • Overcast at 2,500' AGL
  • Mist
From Apr-26 @ 12:00 to Apr-26 @ 15:00
FM261200 06004KT P6SM OVC045
Wind Visibility Clouds
60° at 4 knots Greater than 6 miles
  • Overcast at 4,500' AGL
From Apr-26 @ 15:00 to Apr-26 @ 18:00
FM261500 VRB03KT 6SM -SHRA BR OVC025
Wind Visibility Clouds Conditions
Variable at 3 knots 6 miles
  • Overcast at 2,500' AGL
  • Light Rain
  • Mist
KTYS 251720Z 2518/2618 31008KT P6SM VCSH SCT025 BKN035 BKN060 FM260200 VRB03KT P6SM BKN060 FM260900 00000KT 5SM BR OVC025 FM261200 06004KT P6SM OVC045 FM261500 VRB03KT 6SM -SHRA BR OVC025
Issued Apr-25 @ 17:20 UTC
(48 minutes ago)
Valid From Apr-25 @ 18:00 UTC
(8 minutes ago)
Valid To Apr-26 @ 18:00 UTC
(in 24 hours)
Apr-25 @ 18:00 - Apr-26 @ 02:00
Wind Visibility
310° at 8 knots Greater than 6 miles
Clouds
  • Scattered at 2,500' AGL
  • Broken at 3,500' AGL
  • Broken at 6,000' AGL
From Apr-26 @ 02:00 - Apr-26 @ 09:00
Wind Visibility
Variable at 3 knots Greater than 6 miles
Clouds
  • Broken at 6,000' AGL
From Apr-26 @ 09:00 - Apr-26 @ 12:00
Clouds
  • Overcast at 2,500' AGL
Conditions
  • Mist
From Apr-26 @ 12:00 - Apr-26 @ 15:00
Wind Visibility
60° at 4 knots Greater than 6 miles
Clouds
  • Overcast at 4,500' AGL
From Apr-26 @ 15:00 - Apr-26 @ 18:00
Wind Visibility
Variable at 3 knots 6 miles
Clouds
  • Overcast at 2,500' AGL
Conditions
  • Light Rain
  • Mist